Time;durP1;ratioP1;P1;durP2;ratioP2;P2;SDS_P1;SDS_P2;PMS_P1;PMS_P2;Temp;Humidity;BMP_temperature;BMP_pressure;BME280_temperature;BME280_humidity;BME280_pressure;Samples;Min_cycle;Max_cycle;Signal;HPM_P1;HPM_P2
2023/12/16 00:00:51;;;;;;;;;30.00;27.33;;;;;12.91;69.21;103412.97;4848333;29;45258;-85
2023/12/16 00:03:17;;;;;;;;;31.33;27.00;;;;;12.95;69.04;103422.94;4848302;29;44782;-85
2023/12/16 00:05:43;;;;;;;;;29.67;28.00;;;;;12.96;69.13;103424.75;4832170;29;45414;-85
2023/12/16 00:08:08;;;;;;;;;22.00;17.67;;;;;12.96;68.92;103408.72;4846944;29;48208;-84
2023/12/16 00:10:34;;;;;;;;;25.00;25.00;;;;;12.91;68.47;103418.31;4846327;29;45510;-85
2023/12/16 00:12:59;;;;;;;;;28.67;27.00;;;;;12.95;68.12;103420.28;4846171;29;45344;-85
2023/12/16 00:15:24;;;;;;;;;22.33;22.33;;;;;12.89;68.18;103413.75;4848108;29;45514;-84
2023/12/16 00:17:50;;;;;;;;;24.67;23.67;;;;;12.83;68.42;103401.00;4847492;29;47015;-84
2023/12/16 00:20:15;;;;;;;;;36.33;31.00;;;;;12.84;68.49;103410.81;4849455;29;45407;-84
2023/12/16 00:22:41;;;;;;;;;28.67;23.67;;;;;12.75;68.34;103411.31;4847856;29;45478;-84
2023/12/16 00:25:07;;;;;;;;;23.67;23.67;;;;;12.74;68.26;103401.47;4831419;29;44841;-85
2023/12/16 00:27:33;;;;;;;;;29.33;26.00;;;;;12.67;68.27;103401.13;4847270;29;48464;-85
2023/12/16 00:29:58;;;;;;;;;27.00;26.33;;;;;12.70;68.43;103411.94;4847038;29;45594;-85
2023/12/16 00:32:24;;;;;;;;;26.00;22.33;;;;;12.66;68.03;103416.19;4848285;29;45472;-85
2023/12/16 00:34:49;;;;;;;;;29.00;25.67;;;;;12.54;68.26;103402.25;4831834;29;45374;-85
2023/12/16 00:37:14;;;;;;;;;30.67;28.67;;;;;12.53;68.64;103404.03;4864321;29;47095;-85
2023/12/16 00:39:40;;;;;;;;;29.00;22.67;;;;;12.51;68.84;103411.03;4864972;29;51327;-85
2023/12/16 00:42:05;;;;;;;;;28.33;25.00;;;;;12.56;68.71;103416.59;4866010;29;45525;-85
2023/12/16 00:44:33;;;;;;;;;28.67;24.67;;;;;12.53;68.74;103409.34;4865785;29;45365;-84
2023/12/16 00:46:59;;;;;;;;;27.33;25.00;;;;;12.57;68.28;103414.00;4864611;29;46781;-85
2023/12/16 00:49:24;;;;;;;;;30.00;28.33;;;;;12.53;68.35;103408.44;4866031;29;45188;-85
2023/12/16 00:51:56;;;;;;;;;31.67;27.67;;;;;12.73;68.45;103406.75;4849722;29;44819;-85
2023/12/16 00:54:22;;;;;;;;;27.00;25.33;;;;;12.52;68.54;103407.53;4865627;29;44785;-85
2023/12/16 00:56:49;;;;;;;;;22.67;22.33;;;;;12.61;68.63;103417.75;4864429;29;46942;-85
2023/12/16 00:59:18;;;;;;;;;26.67;24.33;;;;;12.51;68.29;103412.81;4866096;29;45496;-86
2023/12/16 01:01:43;;;;;;;;;29.00;26.00;;;;;12.47;68.49;103405.47;4865603;29;45567;-85
2023/12/16 01:04:09;;;;;;;;;24.67;23.67;;;;;12.49;68.43;103415.38;4866463;29;45425;-86
2023/12/16 01:06:35;;;;;;;;;26.67;24.67;;;;;12.40;68.31;103404.25;4849016;29;47490;-86
2023/12/16 01:12:22;;;;;;;;;20.67;20.67;;;;;12.45;68.46;103413.41;4866385;29;45256;-84
2023/12/16 01:14:49;;;;;;;;;24.67;19.00;;;;;12.40;68.25;103398.91;4867130;29;45404;-84
2023/12/16 01:17:14;;;;;;;;;25.67;20.67;;;;;12.45;67.80;103400.06;4866411;29;45429;-84
2023/12/16 01:19:39;;;;;;;;;14.00;13.33;;;;;12.46;67.85;103396.53;4864979;29;45470;-84
2023/12/16 01:22:05;;;;;;;;;22.67;22.00;;;;;12.52;67.90;103407.53;4850616;29;45766;-84
2023/12/16 01:24:32;;;;;;;;;21.33;21.33;;;;;12.49;67.42;103396.69;4865244;29;45258;-84
2023/12/16 01:26:57;;;;;;;;;18.00;18.00;;;;;12.49;67.47;103396.69;4849710;29;47217;-85
2023/12/16 01:29:23;;;;;;;;;19.00;16.33;;;;;12.54;67.79;103400.53;4867426;29;45422;-85
2023/12/16 01:31:48;;;;;;;;;21.00;20.00;;;;;12.49;67.54;103396.69;4866307;29;45218;-85
2023/12/16 01:34:13;;;;;;;;;22.00;19.00;;;;;12.52;67.35;103407.53;4865387;29;45227;-85
2023/12/16 01:36:39;;;;;;;;;20.67;18.00;;;;;12.48;67.60;103408.25;4865137;29;47366;-85
2023/12/16 01:39:04;;;;;;;;;21.33;21.33;;;;;12.46;67.18;103400.97;4865097;29;45408;-85
2023/12/16 01:41:32;;;;;;;;;20.00;18.00;;;;;12.57;67.84;103402.41;4849604;29;45526;-86
2023/12/16 01:43:57;;;;;;;;;23.00;20.00;;;;;12.27;67.86;103393.81;4864320;29;45519;-85
2023/12/16 01:46:23;;;;;;;;;24.00;20.00;;;;;12.28;68.12;103407.25;4866651;29;47026;-85
2023/12/16 01:48:49;;;;;;;;;15.00;14.00;;;;;12.23;68.25;103402.50;4867778;29;45801;-85
2023/12/16 01:51:16;;;;;;;;;25.67;22.00;;;;;12.26;68.30;103413.31;4867119;29;45462;-85
2023/12/16 01:53:42;;;;;;;;;28.33;25.67;;;;;12.08;68.40;103424.91;4867345;29;45421;-84
2023/12/16 01:56:08;;;;;;;;;22.33;20.67;;;;;11.98;68.43;103409.28;4866978;29;46143;-85
2023/12/16 01:58:37;;;;;;;;;28.00;22.67;;;;;11.99;68.55;103419.09;4863295;29;45716;-85
2023/12/16 02:01:03;;;;;;;;;24.67;19.33;;;;;11.93;68.61;103426.78;4863290;29;45453;-83
2023/12/16 02:03:30;;;;;;;;;22.33;21.33;;;;;11.96;68.50;103426.97;4863587;29;45445;-83
2023/12/16 02:06:00;;;;;;;;;24.33;21.67;;;;;11.90;68.73;103418.66;4864614;29;45045;-83
2023/12/16 02:08:26;;;;;;;;;21.67;21.00;;;;;11.78;68.80;103427.78;4848032;29;45388;-83
2023/12/16 02:10:51;;;;;;;;;26.33;19.33;;;;;11.79;68.47;103437.59;4862766;29;44909;-83
2023/12/16 02:13:18;;;;;;;;;29.67;23.67;;;;;11.74;68.77;103428.47;4863332;29;45469;-84
2023/12/16 02:15:44;;;;;;;;;25.00;22.67;;;;;11.66;68.85;103428.91;4862473;29;47458;-83
2023/12/16 02:18:11;;;;;;;;;22.67;19.67;;;;;11.62;69.13;103427.81;4863925;29;44850;-83
2023/12/16 02:20:37;;;;;;;;;23.33;22.67;;;;;11.57;69.07;103424.94;4867193;29;44896;-83
2023/12/16 02:23:03;;;;;;;;;19.33;18.00;;;;;11.55;69.44;103420.31;4862727;29;44896;-83
2023/12/16 02:25:28;;;;;;;;;23.67;20.00;;;;;11.44;69.55;103411.78;4863656;29;46988;-83
2023/12/16 02:27:53;;;;;;;;;24.67;23.00;;;;;11.43;69.48;103417.00;4849677;29;45399;-83
2023/12/16 02:33:41;;;;;;;;;26.00;24.00;;;;;11.36;69.63;103416.69;4867302;29;45769;-83
2023/12/16 02:36:07;;;;;;;;;21.67;18.67;;;;;11.33;69.77;103413.88;4865822;29;45401;-84
2023/12/16 02:38:32;;;;;;;;;22.00;20.00;;;;;11.28;69.84;103415.34;4865220;29;46038;-83
2023/12/16 02:40:57;;;;;;;;;22.00;18.67;;;;;11.27;69.54;103418.88;4865512;29;45390;-84
2023/12/16 02:43:23;;;;;;;;;17.33;17.33;;;;;11.27;69.82;103412.59;4866187;29;45029;-83
2023/12/16 02:45:48;;;;;;;;;18.00;16.67;;;;;11.29;69.83;103427.84;4865013;29;46203;-83
2023/12/16 02:48:14;;;;;;;;;13.33;13.00;;;;;11.24;69.67;103432.00;4829296;29;44840;-84
2023/12/16 02:50:39;;;;;;;;;11.00;11.00;;;;;11.29;69.04;103438.50;4846018;29;44954;-83
2023/12/16 02:53:06;;;;;;;;;11.67;11.67;;;;;11.29;68.89;103437.56;4845449;29;45498;-83
2023/12/16 02:55:32;;;;;;;;;9.67;9.67;;;;;11.33;69.04;103435.19;4829079;29;47318;-84
2023/12/16 02:57:57;;;;;;;;;12.67;10.67;;;;;11.29;68.98;103433.19;4844624;29;44811;-83
2023/12/16 03:00:22;;;;;;;;;14.33;11.67;;;;;11.25;68.82;103433.84;4845018;29;51869;-84
2023/12/16 03:02:48;;;;;;;;;15.33;12.33;;;;;11.26;68.27;103443.66;4829100;29;45320;-84
2023/12/16 03:05:13;;;;;;;;;11.67;9.67;;;;;11.24;68.67;103436.44;4844662;29;46138;-83
2023/12/16 03:07:40;;;;;;;;;11.00;11.00;;;;;11.36;68.80;103439.75;4828138;29;45872;-83
2023/12/16 03:10:06;;;;;;;;;14.67;14.67;;;;;11.19;68.65;103445.09;4845412;29;45746;-83
2023/12/16 03:12:31;;;;;;;;;10.33;10.00;;;;;11.17;68.84;103449.41;4843944;29;45583;-83
2023/12/16 03:14:56;;;;;;;;;12.33;8.00;;;;;11.24;68.84;103452.41;4844635;29;44925;-83
2023/12/16 03:17:22;;;;;;;;;18.33;16.00;;;;;11.26;68.38;103454.31;4827833;29;45799;-83
2023/12/16 03:19:47;;;;;;;;;13.33;11.67;;;;;11.26;68.32;103461.41;4844612;29;45365;-84
2023/12/16 03:22:13;;;;;;;;;12.00;12.00;;;;;11.24;68.10;103448.00;4842691;29;45656;-85
2023/12/16 03:24:46;;;;;;;;;8.00;7.67;;;;;11.47;67.16;103445.66;4828298;29;47188;-84
2023/12/16 03:27:11;;;;;;;;;7.33;6.33;;;;;11.19;67.55;103428.19;4844625;29;44867;-84
2023/12/16 03:29:37;;;;;;;;;7.67;7.67;;;;;11.34;67.65;103439.66;4835786;29;45463;-84
2023/12/16 03:32:02;;;;;;;;;8.00;6.33;;;;;11.49;67.46;103451.97;4844070;29;45435;-84
2023/12/16 03:34:34;;;;;;;;;6.67;6.67;;;;;11.56;67.27;103451.50;4844215;29;47311;-83
2023/12/16 03:37:00;;;;;;;;;7.00;4.67;;;;;11.59;66.99;103436.59;4845706;29;45458;-83
2023/12/16 03:39:25;;;;;;;;;8.33;6.67;;;;;11.60;67.02;103413.50;4845981;29;45336;-83
2023/12/16 03:41:50;;;;;;;;;4.00;4.00;;;;;11.76;67.04;103429.47;4832477;29;45402;-84
2023/12/16 03:44:16;;;;;;;;;8.00;7.00;;;;;11.87;66.36;103445.09;4847552;29;46654;-83
2023/12/16 03:46:41;;;;;;;;;5.33;5.33;;;;;11.80;66.03;103433.22;4854166;29;45425;-83
2023/12/16 03:49:07;;;;;;;;;6.67;6.67;;;;;11.93;65.96;103442.78;4864654;29;45468;-83
2023/12/16 03:51:32;;;;;;;;;7.67;7.67;;;;;11.82;65.34;103403.13;4849405;29;45422;-83
2023/12/16 03:53:57;;;;;;;;;7.33;6.00;;;;;11.96;65.21;103434.97;4866557;29;45349;-83
2023/12/16 03:56:23;;;;;;;;;6.33;4.00;;;;;11.94;65.74;103425.97;4849601;29;45434;-84
2023/12/16 03:58:48;;;;;;;;;7.33;7.00;;;;;11.98;65.62;103422.63;4864642;29;45393;-83
2023/12/16 04:01:14;;;;;;;;;6.67;6.67;;;;;12.06;65.71;103428.31;4866683;29;45811;-84
2023/12/16 04:03:40;;;;;;;;;7.67;7.00;;;;;12.13;65.38;103428.72;4866466;29;45317;-84
2023/12/16 04:06:12;;;;;;;;;6.67;6.67;;;;;12.31;65.41;103427.81;4864198;29;45500;-84
2023/12/16 04:08:39;;;;;;;;;7.00;6.33;;;;;12.28;65.49;103427.66;4865795;29;45356;-83
2023/12/16 04:11:04;;;;;;;;;7.00;7.00;;;;;12.26;65.38;103424.94;4865994;29;45336;-84
2023/12/16 04:13:30;;;;;;;;;7.00;5.33;;;;;12.26;64.91;103432.00;4866661;29;45844;-84
2023/12/16 04:15:55;;;;;;;;;6.00;6.00;;;;;12.24;65.44;103431.94;4867897;29;44810;-84
2023/12/16 04:18:21;;;;;;;;;5.00;5.00;;;;;12.25;65.48;103424.84;4868038;29;45473;-83
2023/12/16 04:20:46;;;;;;;;;8.00;6.67;;;;;12.20;65.08;103430.88;4868712;29;45405;-82
2023/12/16 04:23:12;;;;;;;;;6.67;6.67;;;;;12.15;65.69;103427.03;4852002;29;59086;-83
2023/12/16 04:25:37;;;;;;;;;8.33;8.00;;;;;12.08;66.47;103424.91;4867443;29;45432;-83
2023/12/16 04:28:03;;;;;;;;;10.67;8.67;;;;;12.05;66.37;103414.06;4866340;29;45478;-83
2023/12/16 04:30:28;;;;;;;;;9.00;8.67;;;;;12.04;66.62;103420.25;4868482;29;45411;-84
2023/12/16 04:32:53;;;;;;;;;12.33;8.67;;;;;12.02;67.01;103421.94;4871311;29;46107;-84
2023/12/16 04:35:19;;;;;;;;;12.67;12.00;;;;;12.03;67.58;103418.41;4871207;29;45498;-83
2023/12/16 04:37:46;;;;;;;;;9.67;8.67;;;;;12.08;67.63;103419.59;4855142;29;45517;-83
2023/12/16 04:40:11;;;;;;;;;10.33;10.33;;;;;12.14;67.56;103424.28;4870657;29;45200;-83
2023/12/16 04:42:37;;;;;;;;;10.33;7.33;;;;;12.10;67.14;103411.63;4871549;29;45359;-83
2023/12/16 04:45:03;;;;;;;;;12.67;9.33;;;;;12.16;67.00;103427.97;4870006;29;45397;-83
2023/12/16 04:47:28;;;;;;;;;8.00;7.00;;;;;12.11;66.81;103432.16;4870369;29;45370;-84
2023/12/16 04:49:53;;;;;;;;;8.00;8.00;;;;;12.10;66.43;103428.56;4853197;29;44921;-84
2023/12/16 04:52:19;;;;;;;;;8.00;6.00;;;;;12.06;66.57;103418.59;4869378;29;45397;-84
2023/12/16 04:54:45;;;;;;;;;12.00;9.67;;;;;12.19;67.01;103413.03;4869524;29;45326;-84
2023/12/16 04:57:11;;;;;;;;;11.00;9.00;;;;;12.06;67.04;103410.59;4867411;29;44863;-84
2023/12/16 04:59:36;;;;;;;;;8.00;7.00;;;;;12.00;67.03;103404.94;4866460;29;45380;-84
2023/12/16 05:02:02;;;;;;;;;9.00;9.00;;;;;12.04;67.30;103414.94;4865946;29;47023;-84
2023/12/16 05:04:27;;;;;;;;;11.00;10.00;;;;;12.00;67.30;103418.28;4865304;29;45474;-83
2023/12/16 05:06:53;;;;;;;;;16.33;13.00;;;;;11.97;67.89;103418.09;4865963;29;45398;-84
2023/12/16 05:09:18;;;;;;;;;12.00;9.67;;;;;11.93;67.40;103418.78;4866337;29;45407;-83
2023/12/16 05:11:43;;;;;;;;;10.33;10.33;;;;;11.84;67.25;103407.63;4866726;29;45476;-84
2023/12/16 05:14:09;;;;;;;;;9.33;9.00;;;;;11.88;67.50;103425.63;4867842;29;44892;-84
2023/12/16 05:16:34;;;;;;;;;13.00;10.33;;;;;11.88;67.67;103425.63;4865842;29;44871;-84
2023/12/16 05:19:00;;;;;;;;;12.33;12.33;;;;;11.93;68.13;103429.44;4866558;29;47356;-84
2023/12/16 05:24:48;;;;;;;;;16.33;13.33;;;;;11.92;67.29;103419.63;4869202;29;45364;-84
2023/12/16 05:27:14;;;;;;;;;17.33;17.00;;;;;11.87;67.39;103415.78;4867793;29;45433;-84
2023/12/16 05:29:39;;;;;;;;;14.00;13.33;;;;;11.92;67.72;103416.97;4867638;29;45487;-84
2023/12/16 05:32:05;;;;;;;;;16.33;16.33;;;;;11.92;67.76;103416.97;4867503;29;47271;-83
2023/12/16 05:34:33;;;;;;;;;18.33;13.67;;;;;12.03;67.80;103412.19;4867671;29;45951;-83
2023/12/16 05:36:59;;;;;;;;;14.33;10.67;;;;;11.89;67.92;103416.81;4867938;29;45367;-83
2023/12/16 05:39:26;;;;;;;;;11.67;10.33;;;;;11.95;68.03;103417.13;4868388;29;45643;-83
2023/12/16 05:41:51;;;;;;;;;9.33;8.33;;;;;11.87;67.97;103418.44;4867116;29;46843;-83
2023/12/16 05:44:17;;;;;;;;;14.00;12.00;;;;;11.89;68.30;103422.13;4851470;29;45812;-83
2023/12/16 05:46:42;;;;;;;;;10.67;10.67;;;;;11.87;68.41;103415.78;4866095;29;45381;-82
2023/12/16 05:49:07;;;;;;;;;7.67;7.67;;;;;11.87;68.25;103423.78;4867493;29;45297;-83
2023/12/16 05:51:40;;;;;;;;;13.33;12.00;;;;;12.06;68.44;103423.94;4867982;29;47981;-83
2023/12/16 05:54:08;;;;;;;;;8.67;8.67;;;;;11.88;68.49;103420.28;4870886;29;44773;-83
2023/12/16 05:56:34;;;;;;;;;10.33;9.33;;;;;11.83;68.56;103425.34;4854094;29;44987;-83
2023/12/16 05:58:59;;;;;;;;;8.67;8.67;;;;;11.77;68.54;103425.03;4868528;29;45437;-82
2023/12/16 06:01:25;;;;;;;;;11.33;11.00;;;;;11.76;68.64;103421.47;4867138;29;48474;-83
2023/12/16 06:03:51;;;;;;;;;18.67;15.67;;;;;11.73;68.54;103433.72;4867848;29;45413;-82
2023/12/16 06:06:16;;;;;;;;;11.00;11.00;;;;;11.60;68.85;103419.75;4868163;29;44783;-83
2023/12/16 06:08:42;;;;;;;;;9.33;9.33;;;;;11.61;68.97;103416.25;4868545;29;45340;-83
2023/12/16 06:11:12;;;;;;;;;18.33;14.00;;;;;11.70;68.87;103434.47;4867306;29;46933;-84
2023/12/16 06:13:38;;;;;;;;;14.33;12.33;;;;;11.47;69.34;103421.66;4853239;29;45401;-84
2023/12/16 06:16:04;;;;;;;;;12.33;10.67;;;;;11.49;69.23;103423.59;4868909;29;45512;-83
2023/12/16 06:18:29;;;;;;;;;12.33;11.33;;;;;11.41;69.14;103433.84;4870917;29;44896;-83
2023/12/16 06:20:54;;;;;;;;;12.33;11.00;;;;;11.34;69.43;103429.00;4870180;29;45524;-83
2023/12/16 06:23:20;;;;;;;;;13.00;12.67;;;;;11.32;69.47;103422.69;4852550;29;45862;-84
2023/12/16 06:25:45;;;;;;;;;15.00;14.00;;;;;11.30;69.63;103424.34;4870477;29;45830;-84
2023/12/16 06:28:11;;;;;;;;;15.00;13.33;;;;;11.21;69.68;103421.19;4872418;29;45534;-83
2023/12/16 06:30:37;;;;;;;;;13.33;13.33;;;;;11.22;70.00;103436.34;4870087;29;45940;-83
2023/12/16 06:33:02;;;;;;;;;14.00;12.67;;;;;11.23;69.74;103442.56;4870280;29;45462;-84
2023/12/16 06:35:28;;;;;;;;;12.33;11.67;;;;;11.20;69.82;103441.56;4862955;29;45370;-83
2023/12/16 06:37:53;;;;;;;;;16.33;12.00;;;;;11.19;69.72;103453.06;4852185;29;45364;-83
2023/12/16 06:40:19;;;;;;;;;15.00;13.67;;;;;11.28;69.96;103449.06;4849801;29;47074;-84
2023/12/16 06:42:45;;;;;;;;;12.00;12.00;;;;;11.17;69.80;103453.81;4849832;29;44831;-83
2023/12/16 06:48:39;;;;;;;;;16.67;12.33;;;;;11.32;69.28;103444.00;4851698;29;45350;-83
2023/12/16 06:51:04;;;;;;;;;14.67;14.67;;;;;11.11;69.69;103461.44;4852185;29;47352;-84
2023/12/16 06:53:30;;;;;;;;;17.33;14.67;;;;;11.04;69.59;103456.63;4850528;29;45419;-83
2023/12/16 06:55:56;;;;;;;;;16.33;16.33;;;;;11.05;69.60;103459.38;4834805;29;45472;-83
2023/12/16 06:58:22;;;;;;;;;19.67;16.00;;;;;11.18;69.62;103448.56;4849642;29;45491;-83
2023/12/16 07:00:48;;;;;;;;;19.67;18.00;;;;;11.08;69.33;103458.63;4847917;29;47335;-83
2023/12/16 07:03:13;;;;;;;;;18.00;18.00;;;;;10.98;69.33;103447.44;4848005;29;45293;-84
2023/12/16 07:05:39;;;;;;;;;18.33;16.33;;;;;11.00;69.17;103459.09;4847540;29;45459;-84
2023/12/16 07:08:04;;;;;;;;;16.00;16.00;;;;;10.98;69.38;103457.19;4850736;29;44703;-83
2023/12/16 07:10:31;;;;;;;;;21.00;18.00;;;;;11.12;69.39;103465.97;4850480;29;47400;-84
2023/12/16 07:12:56;;;;;;;;;19.33;14.33;;;;;10.90;69.48;103467.41;4848858;29;45551;-84
2023/12/16 07:15:22;;;;;;;;;23.00;20.00;;;;;10.82;69.71;103460.75;4835265;29;45301;-84
2023/12/16 07:17:47;;;;;;;;;14.33;14.33;;;;;10.82;69.73;103476.72;4854080;29;45398;-83
2023/12/16 07:20:13;;;;;;;;;23.67;19.00;;;;;10.80;69.86;103478.38;4853217;29;47049;-83
2023/12/16 07:22:39;;;;;;;;;23.67;18.67;;;;;10.76;69.94;103466.63;4835121;29;45351;-84
2023/12/16 07:25:05;;;;;;;;;22.33;21.67;;;;;10.69;70.41;103459.13;4851197;29;45517;-83
2023/12/16 07:27:31;;;;;;;;;18.00;17.33;;;;;10.71;70.38;103468.13;4850208;29;45156;-84
2023/12/16 07:29:57;;;;;;;;;23.33;22.67;;;;;10.66;70.37;103458.03;4849616;29;46631;-84
2023/12/16 07:32:26;;;;;;;;;18.00;18.00;;;;;10.66;70.54;103472.25;4851145;29;45429;-84
2023/12/16 07:34:51;;;;;;;;;18.33;16.67;;;;;10.59;70.66;103468.31;4851175;29;45517;-84
2023/12/16 07:37:18;;;;;;;;;22.33;20.00;;;;;10.61;70.95;103477.31;4869476;29;45403;-83
2023/12/16 07:39:44;;;;;;;;;21.33;20.00;;;;;10.56;70.89;103484.13;4852894;29;47437;-84
2023/12/16 07:42:11;;;;;;;;;26.67;24.00;;;;;10.52;70.81;103479.47;4871843;29;45349;-83
2023/12/16 07:44:36;;;;;;;;;20.33;18.67;;;;;10.48;71.15;103484.50;4871638;29;45333;-84
2023/12/16 07:47:01;;;;;;;;;27.00;20.00;;;;;10.51;71.08;103493.56;4867805;29;45409;-83
2023/12/16 07:49:27;;;;;;;;;23.33;21.00;;;;;10.52;71.08;103507.78;4868770;29;47190;-84
2023/12/16 07:51:54;;;;;;;;;22.33;19.00;;;;;10.55;71.17;103494.69;4852081;29;44755;-84
2023/12/16 07:54:20;;;;;;;;;18.33;16.33;;;;;10.51;70.74;103500.66;4872338;29;45397;-84
2023/12/16 07:56:46;;;;;;;;;19.67;19.33;;;;;10.61;71.08;103503.03;4871850;29;45548;-83
2023/12/16 07:59:12;;;;;;;;;22.67;21.33;;;;;10.59;71.17;103502.91;4872056;29;45448;-83
2023/12/16 08:01:37;;;;;;;;;21.67;21.67;;;;;10.61;70.95;103513.66;4870170;29;45360;-83
2023/12/16 08:04:02;;;;;;;;;27.00;24.00;;;;;10.68;70.85;103525.56;4854954;29;45888;-83
2023/12/16 08:06:28;;;;;;;;;22.00;21.00;;;;;10.69;70.74;103517.69;4870643;29;45394;-83
2023/12/16 08:08:53;;;;;;;;;17.33;13.00;;;;;10.70;70.56;103518.59;4871047;29;48792;-83
2023/12/16 08:11:18;;;;;;;;;22.67;22.00;;;;;10.73;70.75;103518.78;4852594;29;45420;-83
2023/12/16 08:13:44;;;;;;;;;29.33;26.00;;;;;10.76;70.41;103519.84;4868459;29;45752;-83
2023/12/16 08:16:11;;;;;;;;;26.33;24.67;;;;;10.78;70.60;103520.88;4866569;29;45480;-84
2023/12/16 08:18:36;;;;;;;;;30.67;28.00;;;;;10.81;70.92;103522.81;4850512;29;47191;-84
2023/12/16 08:21:02;;;;;;;;;26.33;24.67;;;;;10.82;70.84;103528.19;4864548;29;45594;-84
2023/12/16 08:23:27;;;;;;;;;37.00;34.33;;;;;10.87;70.92;103524.91;4866341;29;45437;-83
2023/12/16 08:25:53;;;;;;;;;36.67;34.00;;;;;10.91;70.79;103524.25;4867935;29;45455;-83
2023/12/16 08:28:18;;;;;;;;;34.33;32.00;;;;;10.90;70.83;103523.31;4869301;29;46109;-84
2023/12/16 08:30:44;;;;;;;;;38.00;30.67;;;;;10.97;70.99;103524.63;4869412;29;45354;-83
2023/12/16 08:33:10;;;;;;;;;34.33;32.33;;;;;10.94;70.75;103520.00;4867745;29;44801;-83
2023/12/16 08:35:36;;;;;;;;;31.33;27.33;;;;;11.12;70.99;103522.81;4868671;29;45475;-84
2023/12/16 08:38:02;;;;;;;;;36.33;34.67;;;;;11.01;70.74;103527.53;4868928;29;45446;-84
2023/12/16 08:40:28;;;;;;;;;39.67;31.33;;;;;11.04;70.65;103537.44;4870203;29;45754;-82
2023/12/16 08:42:53;;;;;;;;;40.67;33.33;;;;;11.07;71.09;103537.63;4869052;29;45382;-83
2023/12/16 08:45:19;;;;;;;;;34.00;33.33;;;;;11.08;70.71;103538.53;4870071;29;45414;-83
2023/12/16 08:47:45;;;;;;;;;32.00;31.67;;;;;11.09;70.88;103543.00;4869398;29;45511;-84
2023/12/16 08:50:10;;;;;;;;;36.00;32.33;;;;;11.10;70.64;103551.09;4869474;29;45282;-83
2023/12/16 08:52:36;;;;;;;;;35.33;30.00;;;;;11.14;70.53;103555.75;4869718;29;44940;-83
2023/12/16 08:55:03;;;;;;;;;30.33;30.33;;;;;11.16;70.68;103553.19;4867698;29;45336;-84
2023/12/16 08:57:29;;;;;;;;;33.00;28.33;;;;;11.14;70.58;103554.84;4869601;29;45359;-84
2023/12/16 08:59:56;;;;;;;;;31.67;31.67;;;;;11.21;70.49;103559.72;4870114;29;45286;-84
2023/12/16 09:02:22;;;;;;;;;37.33;33.00;;;;;11.26;70.69;103559.97;4870163;29;44809;-84
2023/12/16 09:04:47;;;;;;;;;34.67;29.00;;;;;11.25;70.20;103548.41;4868928;29;45402;-84
2023/12/16 09:07:14;;;;;;;;;33.33;30.33;;;;;11.41;70.33;103544.81;4853135;29;46833;-84
2023/12/16 09:09:40;;;;;;;;;30.67;26.67;;;;;11.28;70.13;103552.97;4869133;29;45398;-84
2023/12/16 09:12:08;;;;;;;;;33.67;30.67;;;;;11.47;70.46;103539.84;4868816;29;44788;-84
2023/12/16 09:14:33;;;;;;;;;42.67;36.67;;;;;11.37;70.21;103551.75;4868667;29;45390;-84
2023/12/16 09:16:59;;;;;;;;;33.00;30.33;;;;;11.42;70.03;103544.00;4869764;29;45067;-83
2023/12/16 09:19:25;;;;;;;;;29.33;27.33;;;;;11.50;69.85;103548.00;4854893;29;45602;-84
2023/12/16 09:21:50;;;;;;;;;33.33;32.33;;;;;11.48;69.69;103540.78;4871103;29;45418;-84
2023/12/16 09:24:16;;;;;;;;;34.67;30.00;;;;;11.59;69.20;103542.25;4870531;29;45353;-84
2023/12/16 09:26:41;;;;;;;;;28.00;27.00;;;;;11.67;69.01;103538.25;4871306;29;45482;-84
2023/12/16 09:29:06;;;;;;;;;27.67;23.67;;;;;11.70;68.38;103533.13;4870844;29;45362;-84
2023/12/16 09:31:32;;;;;;;;;31.00;26.33;;;;;11.81;68.08;103531.00;4869068;29;45509;-84
2023/12/16 09:33:58;;;;;;;;;27.00;24.67;;;;;11.82;67.87;103532.88;4869708;29;45498;-84
2023/12/16 09:36:30;;;;;;;;;29.00;23.00;;;;;11.91;68.03;103540.47;4851889;29;46930;-84
2023/12/16 09:38:57;;;;;;;;;30.33;29.33;;;;;11.96;68.30;103557.66;4869735;29;44785;-84
2023/12/16 09:41:24;;;;;;;;;30.00;27.00;;;;;11.96;67.73;103547.88;4870550;29;45417;-84
2023/12/16 09:43:55;;;;;;;;;22.67;22.67;;;;;12.06;67.51;103549.28;4869980;29;45545;-84
2023/12/16 09:46:23;;;;;;;;;27.00;23.33;;;;;12.08;67.49;103555.63;4867500;29;47007;-84
2023/12/16 09:48:50;;;;;;;;;32.33;29.00;;;;;12.15;67.26;103560.44;4867216;29;44964;-84
2023/12/16 09:51:16;;;;;;;;;29.67;27.67;;;;;12.07;67.24;103559.13;4867464;29;45593;-84
2023/12/16 09:53:42;;;;;;;;;26.33;25.00;;;;;12.14;67.20;103560.34;4868785;29;45381;-84
2023/12/16 09:56:11;;;;;;;;;32.00;29.00;;;;;12.28;66.96;103559.34;4852318;29;46880;-84
2023/12/16 09:58:43;;;;;;;;;32.67;32.33;;;;;12.33;66.78;103562.25;4869338;29;44805;-84
2023/12/16 10:01:10;;;;;;;;;31.00;29.00;;;;;12.25;66.61;103556.50;4852091;29;45409;-84
2023/12/16 10:03:41;;;;;;;;;29.67;27.67;;;;;12.37;66.27;103556.22;4868571;29;45387;-84
2023/12/16 10:06:17;;;;;;;;;31.00;26.67;;;;;12.50;66.05;103566.72;4851651;29;47493;-83
2023/12/16 10:08:43;;;;;;;;;38.00;31.33;;;;;12.29;66.24;103561.16;4867761;29;45405;-84
2023/12/16 10:11:08;;;;;;;;;33.33;31.67;;;;;12.33;66.12;103567.59;4866281;29;45380;-84
2023/12/16 10:13:57;;;;;;;;;30.33;30.33;;;;;12.57;65.83;103560.84;4867882;29;45361;-84
2023/12/16 10:16:24;;;;;;;;;32.00;28.67;;;;;12.33;65.96;103549.81;4851376;29;47358;-84
2023/12/16 10:18:55;;;;;;;;;30.67;30.67;;;;;12.47;65.86;103542.53;4869915;29;45520;-84
2023/12/16 10:21:23;;;;;;;;;28.33;27.33;;;;;12.43;66.03;103551.22;4853938;29;45447;-84
2023/12/16 10:23:49;;;;;;;;;30.33;27.00;;;;;12.47;65.45;103558.53;4869969;29;44829;-84
2023/12/16 10:26:14;;;;;;;;;25.67;25.33;;;;;12.49;65.08;103550.63;4868833;29;45375;-83
2023/12/16 10:28:45;;;;;;;;;24.00;23.00;;;;;12.70;65.05;103540.09;4870019;29;45508;-83
2023/12/16 10:31:10;;;;;;;;;27.67;24.00;;;;;12.58;64.62;103545.72;4868395;29;44876;-83
2023/12/16 10:33:35;;;;;;;;;31.67;26.67;;;;;12.60;64.62;103545.00;4849651;29;45480;-84
2023/12/16 10:36:01;;;;;;;;;20.67;20.00;;;;;12.66;64.09;103549.69;4864226;29;47801;-83
2023/12/16 10:38:26;;;;;;;;;22.00;20.33;;;;;12.67;64.26;103550.63;4867096;29;45427;-83
2023/12/16 10:40:52;;;;;;;;;22.33;20.67;;;;;12.62;63.76;103531.69;4866253;29;45499;-83
2023/12/16 10:43:17;;;;;;;;;19.00;19.00;;;;;12.71;63.83;103549.94;4867126;29;44837;-83
2023/12/16 10:45:43;;;;;;;;;21.33;21.33;;;;;12.71;63.74;103533.94;4869011;29;48087;-82
2023/12/16 10:48:13;;;;;;;;;17.33;17.33;;;;;12.83;63.63;103534.53;4851529;29;45520;-83
2023/12/16 10:50:47;;;;;;;;;20.00;17.67;;;;;12.95;63.37;103540.47;4853388;29;45376;-83
2023/12/16 10:53:29;;;;;;;;;18.33;17.33;;;;;12.96;63.17;103538.72;4870251;29;44819;-84
2023/12/16 10:55:59;;;;;;;;;23.33;19.33;;;;;12.97;62.92;103536.13;4849683;29;47224;-83
2023/12/16 10:58:27;;;;;;;;;23.33;20.67;;;;;12.93;63.03;103527.91;4865854;29;45529;-83
2023/12/16 11:01:16;;;;;;;;;22.67;20.00;;;;;13.07;63.40;103523.19;4851202;29;45421;-83
2023/12/16 11:04:10;;;;;;;;;19.00;17.33;;;;;13.19;62.94;103515.81;4850954;29;45727;-84
2023/12/16 11:06:56;;;;;;;;;25.00;21.00;;;;;13.20;63.00;103514.94;4867246;29;45673;-83
2023/12/16 11:09:23;;;;;;;;;17.00;15.00;;;;;13.12;63.15;103502.97;4866446;29;45448;-84
2023/12/16 11:11:49;;;;;;;;;18.00;17.33;;;;;13.09;62.76;103513.50;4870448;29;45372;-83
2023/12/16 11:14:16;;;;;;;;;17.00;16.67;;;;;13.14;61.99;103522.66;4870364;29;45273;-83
2023/12/16 11:16:54;;;;;;;;;16.67;15.67;;;;;13.30;62.50;103517.25;4868710;29;47486;-84
2023/12/16 11:19:25;;;;;;;;;20.33;15.67;;;;;13.25;62.17;103520.50;4852351;29;45612;-82
2023/12/16 11:22:25;;;;;;;;;18.33;17.00;;;;;13.44;62.43;103517.91;4868896;29;45375;-84